LTBI/ESK METAR and TAF weather

Enter ICAO airport designator
Station Type Date Time Source
LTBI METAR 2019/12/08 23:50 UTC NOAA

LTBI 082350Z 00000KT 4000 BR SCT010 BKN025 M00/M01 Q1018 TEMPO 2500 RMK RWY08 VRB02KT


Station Type Date Time Source
LTBI Decoded METAR 2019/12/08 23:50 UTC NOAA

Eskisehir, Turkey (LTBI) 39-47N 030-34E 785M
Dec 08, 2019 - 06:50 PM EST / 2019.12.08 2350 UTC
Wind: Calm:0
Visibility: 2 mile(s):0
Sky conditions: mostly cloudy
Weather: mist
Temperature: 32 F (0 C)
Dew Point: 30 F (-1 C)
Relative Humidity: 92%
Pressure (altimeter): 30.06 in. Hg (1018 hPa)
ob: LTBI 082350Z 00000KT 4000 BR SCT010 BKN025 M00/M01 Q1018 TEMPO 2500 RMK RWY08 VRB02KT
cycle: 0

Station Type Date Time Source
LTBI TAF 2012/05/11 09:09 UTC NOAA

TAF LTBI 110740Z 1109/1121 VRB02KT 6000 -SHRA BKN030 BKN090
TEMPO 1112/1116 33015KT 4000 -TSRA FEW025CB BKN030

Example: see airport list